LiveATC.Net - Listen to live air traffic control over the Internet!


ICAO: KPLU  IATA: PLU   Airport: Pierce County Airport - Thun Field
City: Puyallup   State/Province: Washington
Country: United States   Continent: North America
KPLU METAR Weather: KPLU 282155Z AUTO VRB04KT 10SM CLR 23/13 A3025 RMK AO2
KPLU Flight Activity (FlightAware)
KPLU Webcam:  (Airport Webcams) 
KPLU Airport Info   (iFlightPlanner)
KPLU VFR Sectional Chart   (iFlightPlanner) 
KPLU IFR Low Chart   (iFlightPlanner) 

KPLU Del/CTAF/App
Feed Status: UP   Listeners: 0
Listen in your browser - HTML5 player (in browser, HTML5)
Click here to listen with your own player (launches your MP3 player)
Archive Access: KPLU Del/CTAF/App
FacilityFrequency
Pierce Clearance Delivery121.850
Pierce CTAF122.700
Seattle Approach126.500

NOTICE

Unauthorized use prohibited. See LiveATC.net Terms of Service


Airport/ARTCC Code
Frequency Search
(e.g., 124.400, 128.75)
Site-wide search
 


Browse Feeds
Top 50 Feeds
Coverage Map
Bad Weather Areas

LiveATC FAQ
Offer LiveATC feed
Contact LiveATC.net
Press Inquiries

LiveATC on iPhone
LiveATC on Android

Windows Phone
Windows 8/10

LiveATC Mobile
(Mobile browser)

ATC Audio Archives
Interesting Recordings

LiveATC Forums


Home Page
About LiveATC.net
Make a Donation
Terms of Use
Privacy Policy

Canadian Air Freqs

AIRMETs/SIGMETs

FAA Airport Status
Nat'l Airspace Status
Arrival Demand Charts


Server Software By:
Icecast.org
Liquidsoap